• Join FlightAware (Why Join?)
  • Login
  • US Flag 
12:26PM EST


 

Airport Tracker/Info


-or-


 

Live Flight TrackerFlight Track Log ✈ N1KT ✈ 13-Jun-2013 ✈ KHSB - KHLG

Flight Track Log - Related Links

Times and Time Zones

All times are in EDT time to prevent confusion due to time zone crossing. See the N1KT flight status page for this flight to view local times or setup timezone preferences in your user account.

Time Position Orientation Groundspeed Altitude Reporting Facility
EDT Latitude Longitude Course Direction KTS MPH feet Rate Location/Type
02:38PM 37.8572 -88.3983 71° East 265 305 4,600  Level Kansas City Center
02:39PM 37.8817 -88.3111 70° East 262 302 8,000 2,880 Climbing Kansas City Center
02:40PM 37.9100 -88.2119 70° East 289 333 10,600 2,460 Climbing Kansas City Center
02:41PM 37.9386 -88.1042 71° East 313 360 13,200 2,460 Climbing Kansas City Center
02:42PM 37.9694 -87.9947 70° East 327 376 15,700 2,640 Climbing Kansas City Center
02:43PM 38.0114 -87.8080 71° East  Level FlightAware Approximate
02:43PM 38.0067 -87.8592 71° East 336 387 18,700  Level Kansas City Center
02:44PM 38.0375 -87.7444 71° East 342 394 20,600 1,740 Climbing Kansas City Center
02:45PM 38.0714 -87.6239 70° East 355 409 22,300 1,620 Climbing Kansas City Center
02:46PM 38.1053 -87.4958 71° East 378 435 24,100 1,740 Climbing Indianapolis Center
02:47PM 38.1469 -87.3425 71° East 384 442 26,100 1,740 Climbing Indianapolis Center
02:48PM 38.1811 -87.2122 72° East 388 447 27,800 1,440 Climbing Indianapolis Center
02:49PM 38.2172 -87.0764 71° East 394 453 29,100 1,020 Climbing Indianapolis Center
02:50PM 38.2511 -86.9447 72° East 410 472 30,000 840 Climbing Indianapolis Center
02:51PM 38.2889 -86.8042 71° East 425 489 30,900 480 Climbing Indianapolis Center
02:52PM 38.3358 -86.6256 71° East 441 507 31,000 420 Climbing Indianapolis Center
02:53PM 38.3761 -86.4697 72° East 460 529 31,800 960 Climbing Indianapolis Center
02:54PM 38.4153 -86.3203 71° East 447 514 33,000 540 Climbing Indianapolis Center
02:55PM 38.4550 -86.1672 72° East 451 519 33,000  Level Indianapolis Center
02:56PM 38.4936 -86.0125 72° East 456 525 33,000  Level Indianapolis Center
02:57PM 38.5333 -85.8569 72° East 459 528 33,000  Level Indianapolis Center
02:58PM 38.5728 -85.7019 72° East 459 528 33,000  Level Indianapolis Center
02:59PM 38.6136 -85.5472 71° East 459 528 33,000  Level Indianapolis Center
03:00PM 38.6753 -85.3692 66° East 452 520 33,000  Level Indianapolis Center
03:02PM 38.7222 -85.2203 68° East 453 521 33,000  Level Indianapolis Center
03:03PM 38.7703 -85.0711 68° East 454 522 33,000  Level Indianapolis Center
03:04PM 38.8175 -84.9203 68° East 457 526 33,000  Level Indianapolis Center
03:05PM 38.8650 -84.7669 68° East 463 533 33,000  Level Indianapolis Center
03:06PM 38.9214 -84.5911 68° East 463 533 33,000  Level Indianapolis Center
03:07PM 38.9692 -84.4344 69° East 468 539 33,000  Level Indianapolis Center
03:08PM 39.0169 -84.2786 68° East 467 537 33,000  Level Indianapolis Center
03:09PM 39.0647 -84.1217 69° East 468 539 33,000  Level Indianapolis Center
03:10PM 39.1125 -83.9653 68° East 468 539 33,000  Level Indianapolis Center
03:11PM 39.1603 -83.8094 68° East 466 536 33,000  Level Indianapolis Center
03:12PM 39.2153 -83.6256 69° East 468 539 33,000 -420 Level Indianapolis Center
03:13PM 39.2625 -83.4700 69° East 466 536 32,200 -1,140 Descending Indianapolis Center
03:14PM 39.3089 -83.3133 69° East 466 536 30,700 -1,500 Descending Indianapolis Center
03:15PM 39.3558 -83.1569 69° East 467 537 29,200 -1,500 Descending Indianapolis Center
03:16PM 39.4006 -83.0033 69° East 457 526 27,700 -1,440 Descending Indianapolis Center
03:17PM 39.4450 -82.8528 69° East 449 517 26,300 -1,560 Descending Indianapolis Center
03:18PM 39.4956 -82.6797 69° East 440 506 24,500 -1,140 Descending Indianapolis Center
03:19PM 39.5369 -82.5297 72° East 440 506 24,000 -300 Descending Indianapolis Center
03:20PM 39.5453 -82.4838 72° East  Level FlightAware Approximate
03:20PM 39.5767 -82.3769 71° East 445 512 24,000  Level Indianapolis Center
03:21PM 39.6228 -82.2264 68° East 446 513 22,800 -1,500 Descending Indianapolis Center
03:22PM 39.6600 -82.0914 70° East 426 490 21,000 -1,800 Descending Indianapolis Center
03:23PM 39.7006 -81.9522 69° East 414 476 19,100 -1,980 Descending Indianapolis Center
03:25PM 39.7781 -81.6769 70° East 388 447 15,000 -1,980 Descending Indianapolis Center
03:26PM 39.8200 -81.5278 70° East 377 434 13,100 -1,260 Descending Indianapolis Center
03:27PM 39.8536 -81.4078 70° East 371 427 12,400 -1,440 Descending Indianapolis Center
03:28PM 39.8867 -81.2919 70° East 347 399 10,200 -2,280 Descending Indianapolis Center
03:29PM 39.9144 -81.1889 71° East 307 353 7,700 -2,160 Descending Indianapolis Center
03:30PM 39.9411 -81.0917 70° East 288 331 5,800 -1,320 Descending Indianapolis Center
03:31PM 39.9689 -80.9886 71° East 264 304 5,000 -420 Descending Indianapolis Center
03:33PM 39.9925 -80.9039 70° East 256 295 5,000 -120 Level Indianapolis Center
03:34PM 40.0117 -80.8311 71° East 250 288 4,800 -1,020 Descending Indianapolis Center
03:34PM 40.0231 -80.7972 66° East 244 281 3,700 -1,260 Descending Cleveland Center
03:35PM 40.0503 -80.7294 62° Northeast 234 269 3,200 -360 Descending Cleveland Center
03:36PM 40.0881 -80.7025 29° Northeast 182 209 3,000 -540 Descending Cleveland Center
03:37PM 40.1233 -80.6781 28° Northeast 158 182 2,200 -780 Descending Cleveland Center
03:38PM 40.1589 -80.6564 25° Northeast 146 168 1,500 1,380 Descending Cleveland Center
03:39PM 40.2006 -80.6211 33° Northeast 146 168 5,000 1,740 Climbing Cleveland Center
03:40PM 40.2361 -80.5939 30° Northeast 146 168 5,000  Level Cleveland Center
03:41PM 40.2736 -80.5667 29° Northeast 146 168 5,000  Level Cleveland Center
03:42PM 40.3089 -80.5394 30° Northeast 146 168 5,000  Level Cleveland Center